createdAt,value
2023-04-04T00:00:52.949Z,77.3
2023-04-04T00:06:00.349Z,77.3
2023-04-04T00:11:06.708Z,77.1
2023-04-04T00:16:03.287Z,77.1
2023-04-04T00:21:19.683Z,77.1
2023-04-04T00:31:32.483Z,77.1
2023-04-04T00:36:38.810Z,77.5
2023-04-04T00:41:45.178Z,77.1
2023-04-04T00:46:51.655Z,77.1
2023-04-04T00:51:58.060Z,77.1
2023-04-04T00:57:04.430Z,77.0
2023-04-04T01:02:10.825Z,76.9
2023-04-04T01:07:17.391Z,76.9
2023-04-04T01:12:46.645Z,76.8
2023-04-04T01:17:31.595Z,76.8
2023-04-04T01:27:44.493Z,76.8
2023-04-04T01:32:50.974Z,76.8
2023-04-04T01:37:47.370Z,76.9
2023-04-04T01:42:53.843Z,76.8
2023-04-04T01:48:10.445Z,76.7
2023-04-04T01:53:16.860Z,76.8
2023-04-04T02:04:09.700Z,76.7
2023-04-04T02:08:57.814Z,77.6
2023-04-04T02:14:28.242Z,76.8
2023-04-04T02:18:50.534Z,76.7
2023-04-04T02:24:51.057Z,76.8
2023-04-04T02:29:03.291Z,76.6
2023-04-04T02:34:33.719Z,76.7
2023-04-04T02:44:22.494Z,76.7
2023-04-04T02:49:56.430Z,76.6
2023-04-04T02:54:38.897Z,76.7
2023-04-04T03:04:51.782Z,76.6
2023-04-04T03:09:58.164Z,76.6
2023-04-04T03:15:24.774Z,76.6
2023-04-04T03:20:11.020Z,76.7
2023-04-04T03:25:17.494Z,76.5
2023-04-04T03:30:23.990Z,76.6
2023-04-04T03:40:36.786Z,76.5
2023-04-04T03:45:43.747Z,76.5
2023-04-04T03:50:50.110Z,76.5
2023-04-04T03:56:20.507Z,76.6
2023-04-04T04:01:06.489Z,76.6
2023-04-04T04:06:12.916Z,76.6
2023-04-04T04:16:25.723Z,76.4
2023-04-04T04:21:52.182Z,76.5
2023-04-04T04:26:38.446Z,76.4
2023-04-04T04:32:28.950Z,76.4
2023-04-04T04:37:15.287Z,76.3
2023-04-04T05:15:24.511Z,75.0
2023-04-04T05:20:31.740Z,73.6
2023-04-04T05:25:58.175Z,73.7
2023-04-04T05:31:04.566Z,74.1
2023-04-04T05:35:51.000Z,74.7
2023-04-04T05:46:03.714Z,75.3
2023-04-04T05:51:11.283Z,75.4
2023-04-04T05:56:40.069Z,75.7
2023-04-04T06:02:28.573Z,75.9
2023-04-04T06:06:32.798Z,76.1
2023-04-04T06:11:39.215Z,76.3
2023-04-04T06:17:09.647Z,76.9
2023-04-04T06:22:46.083Z,76.9
2023-04-04T06:32:45.924Z,77.6
2023-04-04T06:37:55.692Z,77.5
2023-04-04T06:43:22.719Z,77.5
2023-04-04T06:48:22.093Z,77.9
2023-04-04T06:53:26.451Z,78.2
2023-04-04T06:57:58.766Z,78.6
2023-04-04T07:03:09.175Z,78.4
2023-04-04T07:08:53.769Z,79.0
2023-04-04T07:13:37.205Z,79.1
2023-04-04T07:18:49.606Z,79.4
2023-04-04T07:23:31.946Z,79.6
2023-04-04T07:29:58.426Z,79.8
2023-04-04T07:34:24.728Z,80.2
2023-04-04T07:39:15.089Z,81.1
2023-04-04T07:44:01.464Z,81.6
2023-04-04T07:49:04.092Z,81.0
2023-04-04T07:54:14.390Z,79.9
2023-04-04T07:59:20.821Z,78.2
2023-04-04T08:04:27.242Z,76.1
2023-04-04T08:09:53.574Z,75.1
2023-04-04T08:14:15.878Z,73.4
2023-04-04T08:19:22.256Z,71.5
2023-04-04T08:24:32.282Z,69.9
2023-04-04T08:29:40.212Z,69.3
2023-04-04T08:34:46.602Z,68.4
2023-04-04T08:39:52.999Z,68.4
2023-04-04T08:44:59.357Z,67.7
2023-04-04T08:50:29.794Z,67.6
2023-04-04T08:55:12.247Z,67.1
2023-04-04T09:00:18.518Z,66.9
2023-04-04T09:05:24.972Z,65.5
2023-04-04T09:10:31.366Z,65.0
2023-04-04T09:15:37.749Z,64.6
2023-04-04T09:21:04.160Z,63.6
2023-04-04T09:26:28.593Z,63.5
2023-04-04T09:30:56.885Z,64.4
2023-04-04T09:36:03.379Z,63.0
2023-04-04T09:41:09.931Z,62.6
2023-04-04T09:46:16.308Z,62.1
2023-04-04T10:01:35.479Z,60.8
2023-04-04T10:06:41.776Z,59.5
2023-04-04T10:12:12.203Z,59.8
2023-04-04T10:17:18.637Z,58.6
2023-04-04T10:22:58.258Z,58.3
2023-04-04T10:27:51.283Z,58.1
2023-04-04T10:32:55.710Z,57.5
2023-04-04T10:38:25.975Z,41.9
2023-04-04T10:43:49.388Z,42.2
2023-04-04T10:48:59.988Z,47.7
2023-04-04T10:53:47.340Z,49.2
2023-04-04T10:59:23.802Z,49.4
2023-04-04T11:04:00.228Z,50.8
2023-04-04T11:09:02.691Z,51.6
2023-04-04T11:15:01.214Z,48.9
2023-04-04T11:19:47.648Z,48.7
2023-04-04T11:24:01.960Z,50.9
2023-04-04T11:30:10.573Z,49.1
2023-04-04T11:34:15.082Z,49.9
2023-04-04T11:39:41.518Z,50.6
2023-04-04T11:44:51.202Z,48.9
2023-04-04T11:50:33.698Z,48.7
2023-04-04T11:54:43.963Z,49.4
2023-04-04T12:00:29.427Z,48.2
2023-04-04T12:04:55.774Z,45.0
2023-04-04T12:10:03.500Z,44.5
2023-04-04T12:15:17.254Z,44.8
2023-04-04T12:20:18.443Z,45.6
2023-04-04T12:25:24.851Z,46.4
2023-04-04T12:30:31.389Z,45.0
2023-04-04T12:36:01.862Z,45.9
2023-04-04T12:40:44.175Z,45.0
2023-04-04T12:45:50.575Z,44.6
2023-04-04T12:50:56.960Z,45.7
2023-04-04T12:56:04.822Z,33.5
2023-04-04T13:01:31.047Z,32.3
2023-04-04T13:06:17.434Z,34.9
2023-04-04T13:11:43.824Z,39.3
2023-04-04T13:16:33.838Z,39.8
2023-04-04T13:22:24.274Z,41.1
2023-04-04T13:27:06.698Z,43.2
2023-04-04T13:31:52.946Z,44.5
2023-04-04T13:37:23.522Z,44.7
2023-04-04T13:42:29.916Z,45.2
2023-04-04T13:47:12.237Z,45.1
2023-04-04T13:52:18.605Z,46.8
2023-04-04T13:57:25.110Z,48.2
2023-04-04T14:07:57.915Z,48.5
2023-04-04T14:13:56.376Z,49.8
2023-04-04T14:17:50.663Z,50.0
2023-04-04T14:23:31.104Z,51.7
2023-04-04T14:29:27.099Z,51.8
2023-04-04T14:33:13.429Z,52.8
2023-04-04T14:39:22.894Z,54.1
2023-04-04T14:43:50.339Z,54.7
2023-04-04T14:48:57.747Z,54.2
2023-04-04T14:53:40.063Z,55.3
2023-04-04T15:04:50.179Z,54.8
2023-04-04T15:14:06.882Z,57.5
2023-04-04T15:19:37.257Z,57.2
2023-04-04T15:24:19.582Z,56.8
2023-04-04T15:29:50.010Z,58.1
2023-04-04T15:34:32.362Z,57.7
2023-04-04T15:39:46.213Z,57.7
2023-04-04T15:44:45.348Z,58.3
2023-04-04T15:49:55.309Z,57.9
2023-04-04T15:55:01.650Z,58.3
2023-04-04T16:00:08.049Z,58.9
2023-04-04T16:05:14.585Z,59.1
2023-04-04T16:10:10.928Z,58.4
2023-04-04T16:15:28.888Z,58.4
2023-04-04T16:25:41.647Z,58.7
2023-04-04T16:35:54.456Z,58.9
2023-04-04T16:46:09.343Z,59.2
2023-04-04T16:51:15.863Z,59.3
2023-04-04T16:56:29.790Z,59.9
2023-04-04T17:01:32.324Z,59.7
2023-04-04T17:06:40.237Z,60.5
2023-04-04T17:16:53.331Z,59.6
2023-04-04T17:21:59.515Z,60.0
2023-04-04T17:27:05.906Z,60.3
2023-04-04T17:32:12.414Z,60.6
2023-04-04T17:37:38.794Z,60.6
2023-04-04T17:42:25.112Z,60.7
2023-04-04T17:47:32.499Z,60.7
2023-04-04T17:52:38.883Z,60.8
2023-04-04T17:57:45.330Z,61.2
2023-04-04T18:02:41.726Z,61.4
2023-04-04T18:13:04.485Z,61.7
2023-04-04T18:18:10.884Z,61.9
2023-04-04T18:23:17.250Z,62.0
2023-04-04T18:28:23.654Z,62.4
2023-04-04T18:33:30.009Z,62.6
2023-04-04T18:38:36.392Z,62.9
2023-04-04T18:43:42.799Z,64.1
2023-04-04T18:55:06.772Z,64.4
2023-04-04T18:59:50.787Z,64.7
2023-04-04T19:05:20.610Z,64.8
2023-04-04T19:17:41.391Z,65.5
2023-04-04T19:21:47.604Z,65.6
2023-04-04T19:26:16.868Z,65.4
2023-04-04T19:31:22.441Z,65.6
2023-04-04T19:36:48.917Z,65.5
2023-04-04T19:41:35.271Z,66.0
2023-04-04T19:47:05.699Z,66.2
2023-04-04T19:51:48.026Z,66.3
2023-04-04T19:56:55.653Z,66.5
2023-04-04T20:02:02.027Z,66.5
2023-04-04T20:07:28.447Z,66.7
2023-04-04T20:12:14.835Z,66.7
2023-04-04T20:17:21.201Z,66.6
2023-04-04T20:22:27.603Z,66.7
2023-04-04T20:27:34.049Z,66.7
2023-04-04T20:32:40.452Z,67.0
2023-04-04T20:38:06.799Z,67.0
2023-04-04T20:42:53.190Z,67.1
2023-04-04T20:48:23.566Z,67.2
2023-04-04T20:54:04.125Z,67.3
2023-04-04T20:58:13.596Z,67.4
2023-04-04T21:04:04.025Z,67.4
2023-04-04T21:14:16.811Z,67.7
2023-04-04T21:18:59.099Z,67.8
2023-04-04T21:24:29.507Z,67.8
2023-04-04T21:29:35.921Z,68.0
2023-04-04T21:33:58.243Z,68.0
2023-04-04T21:38:54.633Z,68.1
2023-04-04T21:44:11.045Z,68.2
2023-04-04T21:50:39.999Z,68.2
2023-04-04T21:54:23.887Z,68.2
2023-04-04T21:59:54.290Z,68.3
2023-04-04T22:05:56.841Z,68.2
2023-04-04T22:10:07.032Z,68.3
2023-04-04T22:15:13.474Z,68.5
2023-04-04T22:19:45.906Z,68.5
2023-04-04T22:25:22.331Z,68.6
2023-04-04T22:30:08.661Z,68.5
2023-04-04T22:36:18.144Z,68.7
2023-04-04T22:40:10.389Z,68.8
2023-04-04T22:45:27.811Z,68.6
2023-04-04T22:50:36.397Z,68.7
2023-04-04T23:05:55.540Z,68.7
2023-04-04T23:11:01.966Z,68.7
2023-04-04T23:16:08.439Z,68.7
2023-04-04T23:21:34.899Z,68.8
2023-04-04T23:26:44.797Z,68.8
2023-04-04T23:31:55.223Z,68.8
2023-04-04T23:41:46.081Z,68.9
2023-04-04T23:51:58.926Z,68.8
2023-04-04T23:57:05.286Z,68.8
